Unicom:                    122.8

AWOS:                  118.275

Elevation           1458’ MSL

TPA:                   2500’ MSL

06/24:         5003’ L   75’ W

PAPI:       06/Left     24/Left

(Operate lights on unicom freq.)

Traffic Pattern: Left

Beacon: Sunset to Sunrise

Windsock: yes, lighted

Segmented Circle: No

 

Cleveland Center: 126.72/291.65

FSS: Altoona

[Source: ADDS]
METAR
KFKL 190056Z AUTO 01003KT 10SM CLR 19/17 A3020 RMK AO2 SLP221 T01890172 =
KFKL 182320Z 1900/1924 35005KT P6SM SKC FM190800 00000KT 2SM BR SCT003 TEMPO 1908/1912 1SM BR BKN003 FM191300 07005KT P6SM SKC
TAF
KFKL 182320Z 1900/1924 35005KT P6SM SKC FM190800 00000KT 2SM BR SCT003 TEMPO 1908/1912 1SM BR BKN003 FM191300 07005KT P6SM SKC =
[Source: ADDS]
METAR
KDUJ 190153Z AUTO 36005KT 10SM CLR 19/16 A3018 RMK AO2 SLP209 T01940161 =
KDUJ 182320Z 1900/1924 34005KT P6SM SKC FM190900 00000KT 2SM BR SCT005 TEMPO 1909/1912 3/4SM BR VV005 FM191300 06005KT P6SM SKC
TAF
KDUJ 182320Z 1900/1924 34005KT P6SM SKC FM190900 00000KT 2SM BR SCT005 TEMPO 1909/1912 3/4SM BR VV005 FM191300 06005KT P6SM SKC =

Welcome to Clarion County Airport.

We look forward to serving all of your aviation needs.


Clarion County Airport is a General Aviation, Business Class airport serving the Clarion County Area in Central Western Pennsylvania.  Our 5,003' asphalt runway and gps approaches are capable of serving most of the general aviation fleet in most weather conditions.


If you are planning a fuel stop while flying in Western Pennsylvania, consider paying us a visit. Our prices are some of the lowest in the state Check prices here ----> www.airnav.com/fuel and enter identifier KAXQ or see current prices below. We can have you fueled and taxiing out to the runway in about 10 minutes. Our current hours of operation are Monday- Sunday 8:00AM-4:00PM. Holiday closures are Christmas Day and Thanksgiving. If you require use of the facilities during the holidays or after hours please call ahead and someone will be there to assist you.


- Airport Manager -  


                             CURRENT FUEL PRICES       JET-A w/additive    $3.55            100LL     $4.95 CC  


                              Self Service fueling available 24/7, credit card reader enabled. Center point fueling available upon request.

                                                           For after hours fueling assistance please contact 814-316-5746